Time;durP1;ratioP1;P1;durP2;ratioP2;P2;SDS_P1;SDS_P2;PMS_P1;PMS_P2;Temp;Humidity;BMP_temperature;BMP_pressure;BME280_temperature;BME280_humidity;BME280_pressure;Samples;Min_cycle;Max_cycle;Signal;HPM_P1;HPM_P2
2022/06/12 01:13:30;;;;;;;14.95;4.05;;;13.90;99.90;;;;;;5171097;27;20452;-85
2022/06/12 01:16:19;;;;;;;18.92;5.40;;;13.90;99.90;;;;;;5151204;27;20047;-83
2022/06/12 01:19:07;;;;;;;21.30;4.70;;;13.90;99.90;;;;;;5152025;27;20073;-86
2022/06/12 01:22:11;;;;;;;17.00;4.00;;;13.90;99.90;;;;;;5169364;27;20375;-84
2022/06/12 01:25:03;;;;;;;21.00;3.85;;;13.90;99.90;;;;;;5150690;27;20543;-84
2022/06/12 01:28:32;;;;;;;12.90;3.78;;;13.90;99.90;;;;;;5151951;27;20043;-84
2022/06/12 01:31:30;;;;;;;21.25;4.03;;;13.90;99.90;;;;;;5147018;27;20049;-83
2022/06/12 01:34:44;;;;;;;15.88;3.60;;;13.90;99.90;;;;;;5169360;27;20095;-83
2022/06/12 01:37:33;;;;;;;17.50;3.95;;;13.90;99.90;;;;;;5169194;27;20045;-83
2022/06/12 01:40:37;;;;;;;14.30;3.92;;;13.90;99.90;;;;;;5168507;27;20493;-82
2022/06/12 01:43:32;;;;;;;21.90;4.65;;;13.90;99.90;;;;;;5150075;27;20087;-83
2022/06/12 01:46:23;;;;;;;17.52;4.30;;;13.90;99.90;;;;;;5170253;27;20413;-82
2022/06/12 01:49:09;;;;;;;15.90;4.35;;;13.80;99.90;;;;;;5150445;27;20111;-84
2022/06/12 01:52:07;;;;;;;18.50;4.68;;;13.80;99.90;;;;;;5168541;27;20406;-81
2022/06/12 01:55:04;;;;;;;17.70;4.50;;;13.80;99.90;;;;;;5169957;27;20428;-84
2022/06/12 01:58:09;;;;;;;14.50;3.60;;;13.70;99.90;;;;;;5152580;27;20047;-82
2022/06/12 02:01:10;;;;;;;17.33;4.93;;;13.70;99.90;;;;;;5169410;27;20486;-84
2022/06/12 02:04:11;;;;;;;21.00;5.47;;;13.70;99.90;;;;;;5154234;27;20514;-83
2022/06/12 02:07:17;;;;;;;20.77;5.05;;;13.70;99.90;;;;;;5168231;27;20034;-83
2022/06/12 02:10:13;;;;;;;;;;;13.70;99.90;;;;;;5147772;27;20126;-83
2022/06/12 02:13:14;;;;;;;18.95;4.20;;;13.70;99.90;;;;;;5146971;27;19923;-83
2022/06/12 02:16:36;;;;;;;16.75;4.57;;;13.60;99.90;;;;;;5128435;27;20217;-82
2022/06/12 02:19:29;;;;;;;19.20;4.53;;;13.60;99.90;;;;;;5104991;27;20054;-80
2022/06/12 02:22:20;;;;;;;14.20;3.55;;;13.60;99.90;;;;;;5148386;27;20470;-81
2022/06/12 02:25:11;;;;;;;18.50;4.97;;;13.60;99.90;;;;;;5133768;27;20073;-81
2022/06/12 02:28:11;;;;;;;20.38;5.05;;;13.60;99.90;;;;;;5115709;27;20039;-81
2022/06/12 02:31:16;;;;;;;17.58;4.75;;;13.50;99.90;;;;;;5115810;27;20445;-80
2022/06/12 02:34:08;;;;;;;15.40;4.50;;;13.50;99.90;;;;;;5115140;27;20051;-82
2022/06/12 02:37:00;;;;;;;21.58;5.50;;;13.50;99.90;;;;;;5114384;27;20051;-80
2022/06/12 02:39:51;;;;;;;15.98;4.30;;;13.50;99.90;;;;;;5115727;27;20186;-81
2022/06/12 02:42:44;;;;;;;17.27;4.63;;;13.50;99.90;;;;;;5118990;27;20035;-82
2022/06/12 02:45:54;;;;;;;19.27;4.28;;;13.50;99.90;;;;;;5133184;27;20552;-84
2022/06/12 02:48:41;;;;;;;18.73;4.47;;;13.50;99.90;;;;;;5115538;27;20089;-84
2022/06/12 02:51:46;;;;;;;17.95;4.85;;;13.50;99.90;;;;;;5133625;27;20130;-84
2022/06/12 02:55:22;;;;;;;23.85;4.78;;;13.40;99.90;;;;;;5115727;27;20051;-83
2022/06/12 02:58:25;;;;;;;19.90;4.88;;;13.40;99.90;;;;;;5051294;28;20045;-83
2022/06/12 03:01:16;;;;;;;22.42;4.75;;;13.40;99.90;;;;;;5020430;28;20048;-83
2022/06/12 03:04:40;;;;;;;15.95;4.95;;;13.40;99.90;;;;;;5114923;27;20051;-82
2022/06/12 03:07:26;;;;;;;21.02;5.22;;;13.40;99.90;;;;;;5115104;27;20084;-84
2022/06/12 03:10:17;;;;;;;19.70;4.55;;;13.40;99.90;;;;;;5133106;27;20055;-84
2022/06/12 03:13:06;;;;;;;16.92;4.40;;;13.40;99.90;;;;;;5131962;27;20456;-82
2022/06/12 03:16:01;;;;;;;18.65;4.53;;;13.40;99.90;;;;;;5115173;27;20089;-83
2022/06/12 03:18:54;;;;;;;25.98;5.97;;;13.40;99.90;;;;;;5113505;27;20082;-83
2022/06/12 03:22:00;;;;;;;25.70;5.30;;;13.40;99.90;;;;;;5117185;27;20342;-84
2022/06/12 03:25:31;;;;;;;17.50;4.82;;;13.40;99.90;;;;;;5114510;27;20051;-83
2022/06/12 03:28:49;;;;;;;20.05;5.45;;;13.40;99.90;;;;;;5049761;28;20077;-82
2022/06/12 03:31:46;;;;;;;27.45;5.60;;;13.40;99.90;;;;;;5032627;28;20583;-82
2022/06/12 03:35:09;;;;;;;21.90;6.53;;;13.40;99.90;;;;;;5131782;27;20066;-81
2022/06/12 03:38:10;;;;;;;20.33;4.65;;;13.40;99.90;;;;;;5131968;27;20526;-83
2022/06/12 03:41:09;;;;;;;17.85;4.75;;;13.40;99.90;;;;;;5132260;27;20529;-83
2022/06/12 03:44:12;;;;;;;17.45;4.65;;;13.40;99.90;;;;;;5101134;27;20063;-83
2022/06/12 03:47:02;;;;;;;19.30;5.00;;;13.40;99.90;;;;;;5113975;27;20049;-84
2022/06/12 03:50:21;;;;;;;17.55;4.38;;;13.40;99.90;;;;;;5132241;27;20036;-83
2022/06/12 03:53:25;;;;;;;19.73;5.45;;;13.50;99.90;;;;;;5132337;27;20505;-80
2022/06/12 03:59:38;;;;;;;20.70;4.53;;;13.50;99.90;;;;;;5132359;27;20380;-82
2022/06/12 04:02:27;;;;;;;23.60;5.45;;;13.50;99.90;;;;;;5113935;27;20399;-84
2022/06/12 04:05:34;;;;;;;18.85;4.68;;;13.50;99.90;;;;;;5099126;27;20046;-83
2022/06/12 04:08:25;;;;;;;21.17;6.95;;;13.60;99.90;;;;;;5131343;27;20064;-84
2022/06/12 04:11:14;;;;;;;22.27;5.88;;;13.60;99.90;;;;;;5130586;27;20058;-83
2022/06/12 04:14:04;;;;;;;24.35;6.53;;;13.60;99.90;;;;;;5131018;27;20418;-83
2022/06/12 04:16:55;;;;;;;25.08;5.80;;;13.70;99.90;;;;;;5132569;27;20047;-83
2022/06/12 04:20:00;;;;;;;27.33;5.72;;;13.70;99.90;;;;;;5133766;27;20054;-82
2022/06/12 04:23:22;;;;;;;16.95;5.43;;;13.70;99.90;;;;;;5113545;27;20055;-83
2022/06/12 04:26:11;;;;;;;26.50;5.32;;;13.80;99.90;;;;;;5130587;27;20498;-81
2022/06/12 04:29:03;;;;;;;20.65;5.22;;;13.80;99.90;;;;;;5131904;27;20047;-82
2022/06/12 04:31:53;;;;;;;20.30;5.10;;;13.90;99.90;;;;;;5131495;27;20050;-82
2022/06/12 04:34:42;;;;;;;28.80;6.22;;;14.00;99.90;;;;;;5130922;27;20167;-83
2022/06/12 04:37:31;;;;;;;29.58;6.82;;;14.00;99.90;;;;;;5113285;27;20051;-83
2022/06/12 04:40:26;;;;;;;33.15;5.85;;;14.20;99.90;;;;;;5130729;27;20043;-83
2022/06/12 04:43:13;;;;;;;28.90;5.53;;;14.30;99.90;;;;;;5113332;27;20417;-85
2022/06/12 04:45:59;;;;;;;20.52;5.03;;;14.40;99.90;;;;;;5131551;27;20075;-84
2022/06/12 04:48:48;;;;;;;19.40;4.90;;;14.50;99.90;;;;;;5130903;27;20055;-82
2022/06/12 04:51:34;;;;;;;28.23;6.80;;;14.60;99.90;;;;;;5112342;28;20059;-84
2022/06/12 04:54:22;;;;;;;25.60;5.88;;;14.70;99.90;;;;;;5113247;27;20134;-82
2022/06/12 04:57:09;;;;;;;29.73;5.78;;;14.70;99.90;;;;;;5131079;27;20051;-83
2022/06/12 04:59:56;;;;;;;27.98;5.30;;;14.80;99.90;;;;;;5130473;27;20051;-82
2022/06/12 05:02:42;;;;;;;19.52;5.28;;;14.80;99.90;;;;;;5130856;27;20131;-84
2022/06/12 05:05:29;;;;;;;27.95;6.07;;;14.90;99.90;;;;;;5130689;27;20215;-83
2022/06/12 05:08:16;;;;;;;23.58;5.65;;;14.90;99.90;;;;;;5130175;27;20047;-82
2022/06/12 05:11:03;;;;;;;21.25;5.22;;;14.90;99.90;;;;;;5129946;27;20039;-83
2022/06/12 05:13:49;;;;;;;29.95;6.13;;;14.90;99.90;;;;;;5130888;28;20124;-83
2022/06/12 05:16:44;;;;;;;20.75;6.97;;;15.00;99.90;;;;;;5131279;28;20483;-82
2022/06/12 05:19:33;;;;;;;24.83;6.68;;;15.00;99.90;;;;;;5112879;28;20069;-83
2022/06/12 05:22:22;;;;;;;24.80;5.85;;;15.10;99.90;;;;;;5130750;28;20134;-82
2022/06/12 05:25:09;;;;;;;24.02;5.65;;;15.20;99.90;;;;;;5112785;28;20142;-80
2022/06/12 05:27:56;;;;;;;25.98;6.18;;;15.30;99.90;;;;;;5130451;28;20511;-80
2022/06/12 05:30:43;;;;;;;23.80;6.85;;;15.40;99.90;;;;;;5130948;28;20486;-82
2022/06/12 05:33:30;;;;;;;22.77;5.57;;;15.40;99.90;;;;;;5112769;28;20058;-80
2022/06/12 05:36:16;;;;;;;31.73;6.80;;;15.50;99.90;;;;;;5133211;28;20047;-83
2022/06/12 05:39:03;;;;;;;24.50;7.25;;;15.60;99.90;;;;;;5111737;28;20039;-79
2022/06/12 05:41:51;;;;;;;24.52;7.38;;;15.70;99.90;;;;;;5131505;28;20421;-81
2022/06/12 05:44:38;;;;;;;25.95;6.75;;;15.90;99.90;;;;;;5129908;28;20046;-82
2022/06/12 05:47:24;;;;;;;40.05;7.38;;;16.00;99.90;;;;;;5130959;28;20547;-81
2022/06/12 05:50:11;;;;;;;29.00;7.07;;;16.10;99.90;;;;;;5130806;28;20043;-81
2022/06/12 05:52:57;;;;;;;21.98;6.40;;;16.20;99.90;;;;;;5130451;28;20069;-82
2022/06/12 05:55:44;;;;;;;27.48;6.93;;;16.30;99.90;;;;;;5115313;28;20043;-81
2022/06/12 05:58:30;;;;;;;30.60;6.10;;;16.50;99.90;;;;;;5131306;27;20043;-82
2022/06/12 06:01:19;;;;;;;33.92;6.70;;;16.60;99.90;;;;;;5115846;27;20058;-81
2022/06/12 06:04:05;;;;;;;27.55;6.55;;;16.70;99.90;;;;;;5115462;27;20054;-81
2022/06/12 06:06:59;;;;;;;35.67;7.75;;;16.80;99.90;;;;;;5119048;27;20058;-81
2022/06/12 06:09:45;;;;;;;30.17;7.40;;;16.90;99.90;;;;;;5133784;27;20047;-82
2022/06/12 06:12:32;;;;;;;24.63;6.03;;;17.00;99.90;;;;;;5134812;27;20555;-82
2022/06/12 06:15:19;;;;;;;30.90;8.60;;;17.10;99.90;;;;;;5135045;27;20092;-82
2022/06/12 06:18:06;;;;;;;28.10;6.10;;;17.20;99.90;;;;;;5134561;27;20047;-83
2022/06/12 06:20:53;;;;;;;19.50;5.65;;;17.40;99.90;;;;;;5115791;27;20055;-83
2022/06/12 06:23:39;;;;;;;27.33;6.82;;;17.70;99.90;;;;;;5132602;27;20130;-83
2022/06/12 06:26:25;;;;;;;29.63;6.68;;;17.70;99.90;;;;;;5133881;27;20051;-84
2022/06/12 06:29:12;;;;;;;32.95;7.72;;;17.80;99.90;;;;;;5117066;27;20582;-83
2022/06/12 06:31:58;;;;;;;27.13;6.43;;;17.80;99.90;;;;;;5133086;27;20048;-82
2022/06/12 06:34:44;;;;;;;22.38;5.85;;;17.90;99.90;;;;;;5133411;27;20066;-82
2022/06/12 06:37:31;;;;;;;23.45;5.35;;;18.00;99.90;;;;;;5115293;27;20047;-81
2022/06/12 06:40:20;;;;;;;18.33;4.28;;;17.90;99.90;;;;;;5114518;27;20090;-83
2022/06/12 06:43:08;;;;;;;17.25;4.78;;;18.10;99.90;;;;;;5114942;27;20522;-82
2022/06/12 06:48:58;;;;;;;16.83;3.63;;;18.30;99.90;;;;;;5132979;27;20459;-81
2022/06/12 06:51:45;;;;;;;18.05;4.35;;;18.30;99.90;;;;;;5132894;27;20120;-82
2022/06/12 06:54:31;;;;;;;23.67;5.38;;;18.20;99.90;;;;;;5133958;27;20091;-81
2022/06/12 06:57:17;;;;;;;18.48;4.70;;;18.20;99.90;;;;;;5133606;27;20075;-82
2022/06/12 07:00:05;;;;;;;21.33;4.18;;;18.30;99.90;;;;;;5133378;27;20086;-81
2022/06/12 07:02:51;;;;;;;27.65;4.68;;;18.50;99.90;;;;;;5115038;27;20052;-80
2022/06/12 07:05:39;;;;;;;14.93;3.80;;;18.70;99.90;;;;;;5132324;27;20050;-81
2022/06/12 07:08:29;;;;;;;13.82;3.28;;;18.90;99.90;;;;;;5132881;27;20469;-81
2022/06/12 07:11:15;;;;;;;22.63;4.57;;;19.10;99.90;;;;;;5132011;27;20377;-81
2022/06/12 07:14:01;;;;;;;16.88;3.72;;;19.30;99.90;;;;;;5116064;27;20406;-81
2022/06/12 07:16:48;;;;;;;12.85;3.00;;;19.40;99.90;;;;;;5101576;27;20043;-83
2022/06/12 07:19:38;;;;;;;15.57;3.67;;;19.70;99.90;;;;;;5135486;27;20078;-83
2022/06/12 07:22:24;;;;;;;14.32;3.40;;;19.80;99.90;;;;;;5118697;27;20123;-81
2022/06/12 07:25:13;;;;;;;8.48;1.95;;;20.00;99.90;;;;;;5132798;27;20046;-81
2022/06/12 07:27:59;;;;;;;7.93;1.92;;;19.90;99.90;;;;;;5132396;27;20402;-81
2022/06/12 07:30:45;;;;;;;9.82;2.20;;;20.00;99.90;;;;;;5113975;27;20050;-82
2022/06/12 07:33:32;;;;;;;8.93;2.05;;;20.10;99.90;;;;;;5131275;27;20051;-81
2022/06/12 07:36:19;;;;;;;9.73;2.15;;;20.10;99.90;;;;;;5112663;27;20055;-82
2022/06/12 07:39:09;;;;;;;9.48;2.50;;;20.10;99.90;;;;;;5132332;27;20066;-81
2022/06/12 07:41:56;;;;;;;8.20;3.28;;;20.30;99.90;;;;;;5132915;27;20047;-82
2022/06/12 07:44:43;;;;;;;6.78;2.78;;;20.10;99.90;;;;;;5131003;27;20047;-83
2022/06/12 07:47:29;;;;;;;11.13;3.05;;;20.10;99.90;;;;;;5115983;27;20062;-83
2022/06/12 07:50:15;;;;;;;7.30;2.25;;;20.10;99.90;;;;;;5131803;27;20051;-82
2022/06/12 07:53:02;;;;;;;9.80;2.30;;;20.10;99.90;;;;;;5131808;27;20051;-81
2022/06/12 07:55:50;;;;;;;10.95;2.60;;;19.90;99.90;;;;;;5112797;27;20054;-82
2022/06/12 07:58:37;;;;;;;9.93;3.25;;;20.00;99.90;;;;;;5113561;27;20100;-82
2022/06/12 08:01:26;;;;;;;7.80;2.92;;;20.10;99.90;;;;;;5131982;27;20053;-82
2022/06/12 08:04:13;;;;;;;8.30;2.45;;;20.40;99.90;;;;;;5114464;27;20404;-82
2022/06/12 08:06:59;;;;;;;8.82;2.83;;;20.90;99.90;;;;;;5113794;27;20066;-82
2022/06/12 08:09:45;;;;;;;10.45;2.80;;;21.20;99.90;;;;;;5132780;27;20043;-83
2022/06/12 08:12:34;;;;;;;12.20;2.40;;;21.60;99.90;;;;;;5131059;27;20062;-83
2022/06/12 08:15:23;;;;;;;10.02;2.90;;;21.60;99.90;;;;;;5112685;27;20447;-82
2022/06/12 08:18:09;;;;;;;8.15;2.58;;;21.70;99.90;;;;;;5131361;27;20043;-83
2022/06/12 08:21:00;;;;;;;9.63;2.55;;;21.60;99.90;;;;;;5131693;27;20130;-81
2022/06/12 08:23:56;;;;;;;7.97;1.92;;;21.80;99.90;;;;;;5132158;27;20161;-81
2022/06/12 08:26:42;;;;;;;11.23;2.58;;;21.80;99.90;;;;;;5131864;27;20047;-81
2022/06/12 08:29:28;;;;;;;9.23;2.10;;;21.50;99.90;;;;;;5113420;27;20066;-81
2022/06/12 08:32:20;;;;;;;10.50;2.40;;;21.40;99.90;;;;;;5117795;27;20046;-82
2022/06/12 08:35:13;;;;;;;7.18;2.13;;;21.50;99.90;;;;;;5113592;27;20540;-83
2022/06/12 08:38:00;;;;;;;8.57;2.38;;;21.70;99.90;;;;;;5131447;27;20046;-81
2022/06/12 08:41:33;;;;;;;8.82;2.95;;;21.80;99.90;;;;;;5111937;27;20050;-81
2022/06/12 08:44:34;;;;;;;9.80;2.70;;;22.10;98.80;;;;;;5132090;27;20163;-82
2022/06/12 08:47:36;;;;;;;10.05;2.50;;;22.40;99.40;;;;;;5116630;27;20408;-81
2022/06/12 08:50:29;;;;;;;8.55;2.17;;;22.30;98.80;;;;;;5131628;27;20043;-82
2022/06/12 08:53:43;;;;;;;9.82;2.38;;;22.50;98.90;;;;;;5131555;27;20507;-82
2022/06/12 08:56:42;;;;;;;8.20;2.30;;;22.60;98.30;;;;;;5131064;27;20047;-82
2022/06/12 08:59:38;;;;;;;8.88;2.00;;;22.60;97.80;;;;;;5112827;27;20043;-83
2022/06/12 09:02:30;;;;;;;7.75;2.22;;;22.60;99.30;;;;;;5130053;27;20054;-81
2022/06/12 09:05:26;;;;;;;6.53;2.33;;;22.50;98.90;;;;;;5111857;27;20051;-82
2022/06/12 09:08:36;;;;;;;14.15;2.80;;;22.70;97.90;;;;;;5130414;27;20051;-81
2022/06/12 09:11:30;;;;;;;10.48;2.92;;;22.80;98.80;;;;;;5130889;27;20379;-81
2022/06/12 09:14:37;;;;;;;8.48;2.10;;;23.20;98.50;;;;;;5112093;28;20406;-81
2022/06/12 09:17:51;;;;;;;7.30;2.42;;;23.10;98.80;;;;;;5112140;28;20077;-80
2022/06/12 09:21:10;;;;;;;8.25;2.25;;;22.60;98.70;;;;;;5112308;28;20090;-81
2022/06/12 09:24:03;;;;;;;11.73;2.80;;;22.60;98.60;;;;;;5100251;28;20142;-81
2022/06/12 09:27:16;;;;;;;8.85;2.45;;;22.10;99.60;;;;;;5130770;28;20043;-83
2022/06/12 09:30:12;;;;;;;7.07;2.15;;;21.90;98.60;;;;;;5130872;28;20045;-82
2022/06/12 09:33:42;;;;;;;7.53;2.00;;;22.00;99.40;;;;;;5111746;27;20047;-81
2022/06/12 09:36:28;;;;;;;10.02;2.80;;;22.30;99.90;;;;;;5133837;27;20833;-80
2022/06/12 09:39:15;;;;;;;7.20;2.00;;;22.20;99.90;;;;;;5134592;27;20055;-82
2022/06/12 09:42:19;;;;;;;6.65;1.98;;;22.70;99.90;;;;;;5119403;27;20058;-82
2022/06/12 09:45:24;;;;;;;9.18;2.67;;;22.70;99.20;;;;;;5133836;27;20047;-82
2022/06/12 09:48:10;;;;;;;8.75;2.50;;;22.50;99.90;;;;;;5133910;27;20058;-84
2022/06/12 09:51:05;;;;;;;7.80;2.72;;;22.70;99.90;;;;;;5115904;27;20529;-81
2022/06/12 09:54:11;;;;;;;9.77;2.30;;;22.80;99.70;;;;;;5134280;27;20047;-82
2022/06/12 09:57:14;;;;;;;7.72;2.00;;;22.80;99.00;;;;;;5133827;27;20059;-81
2022/06/12 10:00:06;;;;;;;9.00;1.85;;;23.00;99.00;;;;;;5115908;27;20062;-82
2022/06/12 10:03:11;;;;;;;7.43;1.95;;;23.40;98.70;;;;;;5134212;27;20043;-81
2022/06/12 10:06:06;;;;;;;8.15;2.35;;;23.50;98.10;;;;;;5119012;27;20051;-82
2022/06/12 10:09:04;;;;;;;9.35;2.80;;;23.70;97.40;;;;;;5134110;27;20039;-81
2022/06/12 10:11:56;;;;;;;5.88;1.92;;;23.60;97.60;;;;;;5133936;27;20065;-81
2022/06/12 10:14:47;;;;;;;7.05;1.90;;;23.90;97.60;;;;;;5133727;27;20092;-80
2022/06/12 10:17:41;;;;;;;7.28;2.33;;;24.10;98.00;;;;;;5132330;27;20136;-81
2022/06/12 10:20:32;;;;;;;7.30;2.10;;;24.00;96.60;;;;;;5115842;27;20050;-81
2022/06/12 10:23:18;;;;;;;8.82;2.63;;;23.80;96.60;;;;;;5114761;27;20064;-81
2022/06/12 10:26:25;;;;;;;8.80;1.98;;;23.50;97.30;;;;;;5134027;27;20390;-82
2022/06/12 10:29:14;;;;;;;6.38;2.22;;;23.90;96.30;;;;;;5133659;27;20141;-82
2022/06/12 10:32:04;;;;;;;8.65;2.47;;;24.00;96.50;;;;;;5134100;27;20035;-83
2022/06/12 10:34:56;;;;;;;13.88;3.13;;;24.20;96.80;;;;;;5134041;27;20558;-81
2022/06/12 10:37:42;;;;;;;8.93;2.58;;;24.20;96.60;;;;;;5115263;27;20057;-81
2022/06/12 10:40:29;;;;;;;8.00;2.20;;;24.00;96.60;;;;;;5134551;27;20044;-82
2022/06/12 10:43:33;;;;;;;9.77;2.70;;;24.10;96.90;;;;;;5133036;27;20039;-82
2022/06/12 10:46:25;;;;;;;9.80;3.17;;;23.60;97.10;;;;;;5133827;27;20043;-82
2022/06/12 10:49:19;;;;;;;9.68;2.58;;;23.50;96.60;;;;;;5133126;27;20043;-83
2022/06/12 10:52:23;;;;;;;9.15;2.28;;;23.30;97.20;;;;;;5117844;27;20134;-83
2022/06/12 10:55:11;;;;;;;8.70;2.90;;;22.90;96.30;;;;;;5134635;27;20369;-81
2022/06/12 10:58:46;;;;;;;14.13;3.42;;;23.10;97.90;;;;;;5133358;27;20134;-82
2022/06/12 11:01:37;;;;;;;11.18;2.42;;;23.50;97.40;;;;;;5050878;28;20052;-81
2022/06/12 11:04:53;;;;;;;7.28;3.35;;;23.40;97.30;;;;;;5033568;28;20390;-82
2022/06/12 11:07:58;;;;;;;11.52;2.90;;;23.10;96.70;;;;;;5118243;27;20122;-81
2022/06/12 11:10:55;;;;;;;11.75;2.50;;;23.20;97.10;;;;;;5132761;27;20043;-82
2022/06/12 11:14:19;;;;;;;10.77;2.70;;;23.40;96.70;;;;;;5132492;27;20055;-80
2022/06/12 11:17:38;;;;;;;11.38;2.95;;;23.00;95.50;;;;;;5133434;27;20043;-81
2022/06/12 11:20:37;;;;;;;8.45;2.25;;;22.80;95.50;;;;;;5113640;27;20051;-81
2022/06/12 11:23:32;;;;;;;9.52;2.75;;;22.90;95.90;;;;;;5114053;27;20047;-81
2022/06/12 11:26:38;;;;;;;8.48;2.33;;;23.00;96.40;;;;;;5114641;27;20399;-82
2022/06/12 11:30:05;;;;;;;7.05;2.15;;;22.70;94.50;;;;;;5115051;27;20047;-82
2022/06/12 11:33:00;;;;;;;11.88;3.17;;;22.20;94.40;;;;;;5104310;27;20519;-82
2022/06/12 11:36:02;;;;;;;10.18;2.17;;;22.00;95.70;;;;;;5101262;27;20062;-82
2022/06/12 11:39:12;;;;;;;8.38;2.83;;;22.10;95.80;;;;;;5132802;27;20482;-81
2022/06/12 11:42:04;;;;;;;9.27;3.10;;;22.50;96.30;;;;;;5113462;27;20227;-82
2022/06/12 11:45:18;;;;;;;8.73;2.30;;;22.90;95.20;;;;;;5132320;27;20046;-79
2022/06/12 11:48:36;;;;;;;8.40;2.30;;;22.70;94.90;;;;;;5113549;27;20086;-82
2022/06/12 11:51:54;;;;;;;10.55;2.75;;;22.50;94.20;;;;;;5133128;27;20383;-83
2022/06/12 11:55:25;;;;;;;8.07;3.00;;;22.60;94.40;;;;;;5114168;27;20142;-80
2022/06/12 11:58:53;;;;;;;11.20;2.80;;;22.60;96.80;;;;;;5112183;27;20079;-81
2022/06/12 12:01:54;;;;;;;8.63;2.53;;;22.80;98.60;;;;;;5061051;27;20043;-81
2022/06/12 12:05:11;;;;;;;17.38;3.47;;;23.40;97.40;;;;;;5113495;27;20051;-80
2022/06/12 12:08:32;;;;;;;10.40;3.47;;;23.40;98.40;;;;;;5117127;27;20409;-80
2022/06/12 12:11:25;;;;;;;14.02;3.35;;;23.30;97.20;;;;;;5111947;27;20520;-81
2022/06/12 12:14:19;;;;;;;13.73;3.28;;;23.70;97.60;;;;;;5113463;27;20043;-81
2022/06/12 12:17:18;;;;;;;9.05;2.90;;;23.90;97.70;;;;;;5116862;27;20054;-80
2022/06/12 12:20:32;;;;;;;13.27;3.78;;;23.70;97.10;;;;;;5131711;27;20054;-81
2022/06/12 12:23:26;;;;;;;11.73;3.47;;;23.50;97.10;;;;;;5130711;27;20101;-81
2022/06/12 12:26:33;;;;;;;12.23;3.75;;;23.40;97.70;;;;;;5112652;27;20069;-81
2022/06/12 12:29:27;;;;;;;16.27;3.38;;;23.60;97.10;;;;;;5112215;27;20395;-80
2022/06/12 12:32:13;;;;;;;13.57;2.93;;;23.40;96.80;;;;;;5130787;27;20051;-81
2022/06/12 12:35:01;;;;;;;8.82;2.63;;;23.60;98.20;;;;;;5116668;27;20039;-80
2022/06/12 12:41:13;;;;;;;9.88;2.85;;;23.60;97.00;;;;;;5131163;27;20126;-81
2022/06/12 12:44:01;;;;;;;15.38;3.50;;;23.70;96.00;;;;;;5132488;27;20046;-82
2022/06/12 12:46:52;;;;;;;13.18;3.35;;;24.20;96.20;;;;;;5113547;27;20130;-81
2022/06/12 12:49:39;;;;;;;7.68;3.20;;;23.80;95.60;;;;;;5131214;27;20039;-81
2022/06/12 12:52:25;;;;;;;14.52;2.95;;;23.90;96.10;;;;;;5117546;27;20051;-80
2022/06/12 12:55:25;;;;;;;7.10;2.65;;;24.20;95.60;;;;;;5131049;27;20131;-80
2022/06/12 12:58:17;;;;;;;9.45;2.80;;;24.10;95.00;;;;;;5130990;27;20089;-80
2022/06/12 13:01:22;;;;;;;9.52;2.47;;;23.80;95.60;;;;;;5131142;27;20043;-81
2022/06/12 13:04:31;;;;;;;;;;;24.00;94.90;;;;;;5112880;27;20043;-81
2022/06/12 13:07:54;;;;;;;12.18;2.88;;;24.50;95.30;;;;;;5112418;27;20378;-81
2022/06/12 13:11:07;;;;;;;11.48;3.50;;;24.30;94.20;;;;;;5131465;27;20063;-81
2022/06/12 13:14:11;;;;;;;10.45;2.80;;;23.90;93.50;;;;;;5090193;28;20127;-81
2022/06/12 13:16:57;;;;;;;10.70;2.75;;;24.40;95.00;;;;;;5105298;28;20466;-79
2022/06/12 13:20:13;;;;;;;9.50;3.08;;;24.40;94.50;;;;;;5091120;28;20497;-80
2022/06/12 13:23:11;;;;;;;10.32;2.90;;;24.50;94.60;;;;;;5090241;28;20105;-81
2022/06/12 13:26:04;;;;;;;12.75;3.55;;;24.80;94.20;;;;;;5089274;28;20047;-81
2022/06/12 13:29:02;;;;;;;12.95;3.58;;;25.10;93.60;;;;;;5090550;28;20075;-81
2022/06/12 13:32:01;;;;;;;9.23;2.60;;;25.00;93.20;;;;;;5090005;28;20048;-81
2022/06/12 13:34:55;;;;;;;10.02;2.97;;;24.80;92.90;;;;;;5089509;28;20393;-81
2022/06/12 13:37:46;;;;;;;7.97;2.38;;;25.10;94.80;;;;;;5090500;28;20063;-81
2022/06/12 13:40:38;;;;;;;8.38;3.15;;;25.20;93.00;;;;;;5090075;28;20058;-81
2022/06/12 13:43:37;;;;;;;9.30;2.70;;;25.50;91.70;;;;;;5090675;28;20052;-82
2022/06/12 13:46:31;;;;;;;9.27;2.70;;;25.60;91.20;;;;;;5090211;28;20040;-82
2022/06/12 13:49:44;;;;;;;8.60;2.55;;;25.30;91.10;;;;;;5088959;28;20056;-81
2022/06/12 13:53:06;;;;;;;8.45;2.78;;;25.40;91.00;;;;;;5087268;28;20040;-81
2022/06/12 13:55:57;;;;;;;8.50;2.70;;;25.40;91.10;;;;;;5089622;28;20056;-81
2022/06/12 13:58:53;;;;;;;8.70;2.90;;;25.50;90.60;;;;;;5090309;28;20062;-81
2022/06/12 14:01:39;;;;;;;10.15;2.50;;;25.70;91.20;;;;;;5089589;28;20044;-81
2022/06/12 14:04:31;;;;;;;8.57;2.40;;;25.60;87.00;;;;;;5090692;28;20059;-81
2022/06/12 14:07:18;;;;;;;9.90;2.38;;;25.80;90.10;;;;;;5090317;28;20044;-78
2022/06/12 14:10:19;;;;;;;10.50;2.53;;;26.00;90.10;;;;;;5089605;28;20047;-81
2022/06/12 14:13:12;;;;;;;10.23;2.88;;;26.60;83.20;;;;;;5122463;28;20051;-81
2022/06/12 14:16:11;;;;;;;8.88;2.35;;;26.70;83.90;;;;;;5129769;28;20104;-81
2022/06/12 14:19:06;;;;;;;8.38;2.75;;;27.10;82.90;;;;;;5111149;27;20063;-80
2022/06/12 14:22:18;;;;;;;7.03;2.03;;;26.40;78.00;;;;;;5120060;27;20058;-80
2022/06/12 14:25:28;;;;;;;10.65;2.83;;;26.60;87.10;;;;;;5135013;27;20444;-80
2022/06/12 14:28:14;;;;;;;11.25;3.40;;;26.60;83.40;;;;;;5134289;27;20470;-81
2022/06/12 14:31:18;;;;;;;10.27;2.45;;;26.70;81.90;;;;;;5134187;27;20191;-81
2022/06/12 14:34:24;;;;;;;9.25;2.88;;;26.70;80.30;;;;;;5134032;27;20062;-81
2022/06/12 14:37:37;;;;;;;13.07;2.85;;;27.00;82.60;;;;;;5118803;27;20131;-80
2022/06/12 14:40:44;;;;;;;8.40;2.55;;;26.90;76.80;;;;;;5134068;27;20495;-80
2022/06/12 14:43:37;;;;;;;7.65;2.10;;;26.40;79.40;;;;;;5117630;27;20047;-80
2022/06/12 14:46:26;;;;;;;12.77;2.90;;;26.20;78.80;;;;;;5114952;27;20096;-81
2022/06/12 14:49:21;;;;;;;10.60;2.40;;;25.70;80.30;;;;;;5118466;27;20043;-81
2022/06/12 14:52:07;;;;;;;10.40;2.10;;;25.90;80.20;;;;;;5114802;27;20055;-80
2022/06/12 14:54:55;;;;;;;8.77;2.40;;;26.00;81.10;;;;;;5117858;27;20096;-80
2022/06/12 14:57:41;;;;;;;9.25;2.70;;;26.10;78.20;;;;;;5119406;27;20124;-81
2022/06/12 15:00:28;;;;;;;8.50;2.53;;;25.90;81.10;;;;;;5114639;27;20398;-80
2022/06/12 15:03:15;;;;;;;9.70;2.35;;;25.70;80.10;;;;;;5131968;27;20054;-81
2022/06/12 15:06:02;;;;;;;7.32;2.10;;;25.70;79.40;;;;;;5133537;27;20055;-81
2022/06/12 15:08:49;;;;;;;8.60;2.42;;;25.40;82.00;;;;;;5132897;27;20516;-80
2022/06/12 15:11:37;;;;;;;8.25;2.90;;;25.00;82.90;;;;;;5118925;27;20070;-81
2022/06/12 15:14:23;;;;;;;8.20;2.70;;;25.20;83.00;;;;;;5114049;27;20047;-81
2022/06/12 15:17:13;;;;;;;7.70;3.42;;;25.50;85.50;;;;;;5132927;27;20039;-80
2022/06/12 15:19:59;;;;;;;9.90;2.65;;;25.20;90.70;;;;;;5132947;27;20047;-82
2022/06/12 15:22:46;;;;;;;9.60;2.85;;;25.30;89.40;;;;;;5114520;27;20043;-80
2022/06/12 15:31:44;;;;;;;9.95;3.28;;;24.70;90.60;;;;;;5132263;27;20047;-80
2022/06/12 15:34:33;;;;;;;11.52;3.10;;;25.00;90.90;;;;;;5132689;27;20104;-82
2022/06/12 15:37:19;;;;;;;11.10;2.50;;;25.10;90.20;;;;;;5131940;27;20556;-81
2022/06/12 15:40:06;;;;;;;11.55;2.80;;;25.10;88.90;;;;;;5133192;27;20383;-82
2022/06/12 15:42:52;;;;;;;10.68;2.88;;;25.00;88.00;;;;;;5132855;27;20043;-81
2022/06/12 15:45:38;;;;;;;10.32;2.90;;;24.50;89.50;;;;;;5132183;27;20043;-82
2022/06/12 15:48:25;;;;;;;11.85;2.70;;;24.20;89.30;;;;;;5132390;27;20039;-82
2022/06/12 15:51:15;;;;;;;13.93;2.83;;;24.00;90.10;;;;;;5117514;27;20547;-81
2022/06/12 15:54:01;;;;;;;10.10;3.20;;;23.90;91.20;;;;;;5131554;27;20051;-82
2022/06/12 15:56:55;;;;;;;8.10;2.67;;;23.70;91.30;;;;;;5131410;27;20456;-81
2022/06/12 15:59:42;;;;;;;9.27;2.70;;;23.80;91.70;;;;;;5116664;27;20062;-82
2022/06/12 16:02:28;;;;;;;9.63;2.63;;;23.50;92.10;;;;;;5132405;27;20051;-82
2022/06/12 16:05:15;;;;;;;9.77;2.58;;;23.00;93.20;;;;;;5130962;27;20498;-82
2022/06/12 16:08:01;;;;;;;12.90;3.30;;;23.00;93.40;;;;;;5116381;27;20418;-82
2022/06/12 16:10:47;;;;;;;8.20;2.80;;;22.90;94.40;;;;;;5132115;27;20498;-83
2022/06/12 16:13:34;;;;;;;11.32;3.25;;;22.70;94.50;;;;;;5131754;27;20055;-80
2022/06/12 16:16:20;;;;;;;10.95;3.47;;;22.50;95.60;;;;;;5116529;27;20047;-80
2022/06/12 16:19:07;;;;;;;11.30;3.20;;;22.40;95.70;;;;;;5113058;27;20059;-80
2022/06/12 16:21:53;;;;;;;10.18;2.55;;;22.10;95.70;;;;;;5116772;27;20134;-81
2022/06/12 16:24:39;;;;;;;11.38;3.42;;;21.80;95.90;;;;;;5131719;27;20047;-82
2022/06/12 16:27:25;;;;;;;11.52;2.95;;;21.80;95.70;;;;;;5112933;27;20089;-80
2022/06/12 16:30:15;;;;;;;12.23;3.28;;;22.00;95.90;;;;;;5116508;27;20514;-81
2022/06/12 16:33:01;;;;;;;11.57;3.25;;;21.90;94.60;;;;;;5132450;27;20418;-80